Aviation Digital Data Service (ADDS)

Output produced by METARs form (0839 UTC 19 April 2019)
found at http://www.aviationweather.gov/metar/data/
 
Forecast for: PANC (ANCHORAGE INTL , AK, US)
Text: PANC 190552Z 1906/2012 16006KT 1SM -SN BR FEW005 BKN010 OVC020
Forecast period: 0600 to 1800 UTC 19 April 2019
Forecast type: FROM: standard forecast or significant change
Winds: from the SSE (160 degrees) at 7 MPH (6 knots; 3.1 m/s)
Visibility: 1.00 miles (1.61 km)
Ceiling: 1000 feet AGL
Clouds: few clouds at 500 feet AGL
broken clouds at 1000 feet AGL
overcast cloud deck at 2000 feet AGL
Weather: -SN BR  (light snow, mist)
Text: TEMPO 1906/1908 2SM -SN BR SCT010 OVC020
Forecast period: 0600 to 0800 UTC 19 April 2019
Forecast type: TEMPORARY: The following changes expected for less than half the time period
Visibility: 2.00 miles (3.22 km)
Ceiling: 2000 feet AGL
Clouds: scattered clouds at 1000 feet AGL
overcast cloud deck at 2000 feet AGL
Weather: -SN BR  (light snow, mist)
Text: FM191800 18012KT P6SM VCSH FEW020 OVC045
Forecast period: 1800 UTC 19 April 2019 to 1200 UTC 20 April 2019
Forecast type: FROM: standard forecast or significant change
Winds: from the S (180 degrees) at 14 MPH (12 knots; 6.2 m/s)
Visibility: 6 or more miles 10+ km)
Ceiling: 4500 feet AGL
Clouds: few clouds at 2000 feet AGL
overcast cloud deck at 4500 feet AGL
Weather: VCSH  (showers in vicinity)